createdAt,value
2023-01-06T00:02:54.196Z,8.98
2023-01-06T00:06:20.150Z,8.32
2023-01-06T00:08:52.649Z,8.43
2023-01-06T00:11:21.303Z,8.50
2023-01-06T00:13:51.581Z,9.32
2023-01-06T00:16:21.821Z,7.90
2023-01-06T00:19:00.266Z,8.10
2023-01-06T00:21:29.186Z,9.98
2023-01-06T00:24:03.133Z,9.13
2023-01-06T00:26:37.620Z,9.32
2023-01-06T00:29:14.371Z,8.65
2023-01-06T00:31:51.598Z,9.45
2023-01-06T00:34:35.618Z,9.05
2023-01-06T00:37:05.260Z,9.38
2023-01-06T00:39:40.242Z,9.73
2023-01-06T00:42:11.830Z,9.38
2023-01-06T00:44:58.505Z,8.35
2023-01-06T00:47:38.844Z,8.45
2023-01-06T00:50:28.911Z,7.82
2023-01-06T00:53:11.327Z,8.73
2023-01-06T00:56:09.379Z,8.70
2023-01-06T00:58:42.255Z,8.63
2023-01-06T01:01:11.846Z,9.73
2023-01-06T01:03:43.440Z,8.30
2023-01-06T01:06:12.366Z,8.65
2023-01-06T01:12:06.960Z,8.48
2023-01-06T01:15:00.564Z,8.45
2023-01-06T01:17:32.503Z,8.82
2023-01-06T01:20:30.718Z,9.45
2023-01-06T01:23:02.513Z,9.18
2023-01-06T01:25:56.780Z,8.65
2023-01-06T01:28:50.392Z,9.02
2023-01-06T01:38:47.391Z,11.52
2023-01-06T01:41:26.363Z,10.32
2023-01-06T01:43:58.686Z,10.45
2023-01-06T01:47:03.534Z,9.25
2023-01-06T02:00:56.761Z,9.40
2023-01-06T02:03:28.395Z,8.27
2023-01-06T02:06:16.936Z,9.90
2023-01-06T02:09:32.334Z,9.75
2023-01-06T02:12:57.399Z,9.75
2023-01-06T02:15:30.059Z,9.75
2023-01-06T02:21:37.159Z,8.85
2023-01-06T02:28:47.930Z,7.90
2023-01-06T02:32:09.799Z,7.95
2023-01-06T02:44:25.779Z,8.57
2023-01-06T03:35:43.301Z,7.90
2023-01-06T03:55:32.207Z,7.38
2023-01-06T03:58:02.153Z,8.70
2023-01-06T04:03:36.951Z,8.45
2023-01-06T04:06:07.107Z,8.85
2023-01-06T04:12:13.521Z,9.35
2023-01-06T04:23:33.792Z,8.55
2023-01-06T04:26:52.172Z,8.45
2023-01-06T04:29:52.306Z,7.50
2023-01-06T04:36:16.039Z,10.38
2023-01-06T04:39:37.647Z,8.95
2023-01-06T04:43:13.428Z,9.55
2023-01-06T04:45:13.709Z,10.02
2023-01-06T04:47:45.521Z,9.77
2023-01-06T04:50:16.136Z,9.05
2023-01-06T05:01:13.516Z,8.85
2023-01-06T05:04:08.205Z,8.55
2023-01-06T05:10:01.688Z,8.00
2023-01-06T05:12:36.271Z,8.85
2023-01-06T05:15:05.579Z,7.88
2023-01-06T05:17:53.095Z,7.72
2023-01-06T05:20:21.595Z,8.15
2023-01-06T05:22:50.438Z,7.95
2023-01-06T05:25:57.705Z,8.32
2023-01-06T05:28:25.046Z,8.43
2023-01-06T05:30:54.142Z,9.02
2023-01-06T05:33:24.162Z,9.45
2023-01-06T05:36:02.994Z,8.85
2023-01-06T05:38:36.626Z,8.60
2023-01-06T05:41:26.542Z,9.70
2023-01-06T05:44:08.888Z,9.30
2023-01-06T05:47:01.452Z,8.90
2023-01-06T05:52:27.054Z,9.30
2023-01-06T05:55:08.223Z,9.13
2023-01-06T05:57:39.816Z,9.40
2023-01-06T06:00:36.884Z,8.20
2023-01-06T06:03:44.190Z,8.88
2023-01-06T06:06:15.950Z,9.27
2023-01-06T06:09:25.180Z,9.02
2023-01-06T06:12:44.164Z,9.73
2023-01-06T06:15:17.946Z,9.63
2023-01-06T06:17:49.386Z,9.50
2023-01-06T06:20:18.393Z,9.82
2023-01-06T06:27:03.207Z,8.93
2023-01-06T06:30:38.317Z,8.50
2023-01-06T06:33:06.909Z,9.98
2023-01-06T06:37:40.785Z,9.02
2023-01-06T06:48:22.249Z,9.98
2023-01-06T06:58:46.331Z,8.70
2023-01-06T07:14:25.553Z,9.68
2023-01-06T07:17:22.683Z,9.95
2023-01-06T07:25:36.272Z,10.00
2023-01-06T07:27:30.144Z,9.35
2023-01-06T07:28:33.429Z,10.43
2023-01-06T07:31:53.979Z,9.43
2023-01-06T07:38:54.367Z,9.77
2023-01-06T07:41:29.187Z,8.70
2023-01-06T07:44:53.936Z,9.93
2023-01-06T07:52:27.563Z,10.18
2023-01-06T08:00:03.140Z,9.43
2023-01-06T08:03:55.063Z,9.82
2023-01-06T08:10:02.003Z,9.65
2023-01-06T08:12:42.330Z,8.23
2023-01-06T08:15:40.675Z,9.73
2023-01-06T08:25:41.089Z,10.00
2023-01-06T08:26:34.338Z,9.73
2023-01-06T08:29:12.322Z,9.10
2023-01-06T08:32:22.125Z,9.55
2023-01-06T08:42:21.754Z,9.05
2023-01-06T08:44:50.510Z,8.52
2023-01-06T08:51:35.210Z,9.20
2023-01-06T09:03:34.699Z,9.10
2023-01-06T09:14:43.283Z,10.23
2023-01-06T09:39:00.029Z,9.50
2023-01-06T09:47:29.821Z,9.90
2023-01-06T10:07:21.147Z,9.75
2023-01-06T10:10:36.778Z,10.38
2023-01-06T10:13:59.869Z,10.98
2023-01-06T10:17:16.263Z,9.73
2023-01-06T10:20:40.683Z,8.25
2023-01-06T10:23:24.449Z,10.52
2023-01-06T10:26:50.341Z,9.02
2023-01-06T10:29:38.517Z,9.60
2023-01-06T10:36:46.645Z,10.10
2023-01-06T10:39:22.986Z,10.02
2023-01-06T10:44:59.105Z,9.50
2023-01-06T10:50:37.060Z,10.23
2023-01-06T10:54:58.766Z,8.75
2023-01-06T10:57:36.392Z,8.68
2023-01-06T11:00:17.245Z,9.10
2023-01-06T11:11:26.744Z,7.43
2023-01-06T11:14:36.724Z,7.82
2023-01-06T11:45:44.905Z,9.00
2023-01-06T11:52:46.953Z,9.20
2023-01-06T12:45:41.088Z,12.38
2023-01-06T12:48:24.965Z,12.63
2023-01-06T12:59:51.102Z,13.18
2023-01-06T13:02:58.351Z,12.48
2023-01-06T13:06:55.479Z,12.60
2023-01-06T13:15:01.600Z,12.30
2023-01-06T13:22:54.382Z,12.50
2023-01-06T13:30:40.600Z,12.15
2023-01-06T13:51:34.956Z,16.38
2023-01-06T13:54:27.341Z,15.50
2023-01-06T14:01:34.639Z,15.57
2023-01-06T14:06:11.718Z,17.77
2023-01-06T14:09:36.651Z,16.73
2023-01-06T14:16:16.715Z,17.52
2023-01-06T14:18:51.313Z,15.75
2023-01-06T14:21:36.709Z,20.17
2023-01-06T14:24:09.293Z,16.48
2023-01-06T14:26:49.651Z,15.75
2023-01-06T14:29:46.807Z,17.92
2023-01-06T14:32:56.657Z,17.02
2023-01-06T14:35:37.163Z,14.18
2023-01-06T14:38:08.307Z,14.52
2023-01-06T14:40:41.936Z,15.35
2023-01-06T14:43:30.675Z,14.38
2023-01-06T14:46:07.520Z,14.82
2023-01-06T14:48:43.343Z,14.18
2023-01-06T14:51:19.213Z,14.25
2023-01-06T14:54:06.214Z,15.20
2023-01-06T14:56:57.776Z,16.35
2023-01-06T14:59:27.051Z,15.55
2023-01-06T15:01:59.968Z,16.15
2023-01-06T15:04:57.509Z,15.90
2023-01-06T15:07:25.933Z,16.08
2023-01-06T15:09:54.392Z,16.15
2023-01-06T15:12:30.719Z,16.15
2023-01-06T15:15:14.874Z,16.67
2023-01-06T15:17:43.377Z,16.33
2023-01-06T15:20:15.024Z,16.40
2023-01-06T15:22:46.883Z,15.82
2023-01-06T15:25:22.134Z,17.67
2023-01-06T15:28:06.871Z,17.25
2023-01-06T15:30:36.882Z,18.33
2023-01-06T15:33:06.603Z,18.50
2023-01-06T15:35:35.514Z,20.13
2023-01-06T15:38:08.278Z,19.17
2023-01-06T15:40:36.812Z,20.42
2023-01-06T15:43:11.955Z,19.90
2023-01-06T15:45:42.420Z,19.05
2023-01-06T15:48:13.547Z,18.50
2023-01-06T15:50:42.153Z,17.92
2023-01-06T15:53:24.716Z,17.50
2023-01-06T15:55:56.365Z,16.70
2023-01-06T15:58:30.323Z,17.95
2023-01-06T16:01:02.587Z,15.55
2023-01-06T16:03:33.115Z,16.50
2023-01-06T16:06:12.800Z,17.52
2023-01-06T16:08:41.887Z,17.90
2023-01-06T16:11:47.349Z,16.60
2023-01-06T16:14:31.353Z,16.40
2023-01-06T16:17:09.220Z,16.80
2023-01-06T16:27:35.114Z,18.45
2023-01-06T16:30:44.248Z,18.85
2023-01-06T16:33:46.039Z,20.05
2023-01-06T16:36:21.249Z,19.58
2023-01-06T16:38:49.731Z,20.52
2023-01-06T16:41:20.303Z,21.90
2023-01-06T16:43:48.560Z,20.60
2023-01-06T16:46:41.741Z,19.88
2023-01-06T16:49:11.648Z,19.48
2023-01-06T16:51:40.724Z,18.13
2023-01-06T16:54:13.410Z,20.15
2023-01-06T16:56:41.906Z,20.15
2023-01-06T16:59:13.840Z,22.23
2023-01-06T17:01:44.924Z,20.42
2023-01-06T17:04:14.784Z,19.48
2023-01-06T17:06:45.208Z,19.52
2023-01-06T17:09:20.230Z,17.50
2023-01-06T17:11:54.321Z,19.70
2023-01-06T17:14:32.432Z,19.80
2023-01-06T17:25:23.427Z,18.05
2023-01-06T17:27:51.900Z,19.90
2023-01-06T17:30:22.763Z,20.58
2023-01-06T17:32:52.668Z,18.88
2023-01-06T17:35:28.409Z,21.00
2023-01-06T17:38:00.279Z,21.27
2023-01-06T17:40:36.833Z,20.95
2023-01-06T17:43:16.578Z,22.13
2023-01-06T17:45:45.339Z,22.70
2023-01-06T17:48:15.775Z,20.88
2023-01-06T17:50:48.487Z,25.48
2023-01-06T17:53:36.493Z,23.02
2023-01-06T17:56:07.224Z,22.63
2023-01-06T17:59:26.914Z,25.02
2023-01-06T18:01:55.325Z,22.85
2023-01-06T18:04:26.760Z,20.83
2023-01-06T18:06:55.629Z,23.60
2023-01-06T18:09:25.665Z,24.08
2023-01-06T18:11:58.778Z,23.13
2023-01-06T18:14:34.367Z,22.58
2023-01-06T18:17:16.356Z,23.38
2023-01-06T18:19:46.009Z,22.80
2023-01-06T18:22:19.036Z,24.35
2023-01-06T18:28:20.725Z,22.15
2023-01-06T18:31:58.810Z,21.83
2023-01-06T18:35:24.913Z,21.42
2023-01-06T18:38:45.305Z,22.58
2023-01-06T18:41:20.822Z,25.48
2023-01-06T18:49:08.714Z,23.10
2023-01-06T18:55:01.036Z,22.35
2023-01-06T18:57:33.242Z,22.13
2023-01-06T19:00:34.120Z,23.25
2023-01-06T19:03:35.107Z,20.42
2023-01-06T19:06:33.205Z,21.80
2023-01-06T19:09:15.889Z,21.77
2023-01-06T19:11:44.625Z,20.88
2023-01-06T19:14:18.798Z,22.98
2023-01-06T19:16:52.618Z,23.35
2023-01-06T19:19:25.990Z,21.55
2023-01-06T19:22:09.087Z,23.05
2023-01-06T19:24:44.160Z,22.70
2023-01-06T19:27:32.189Z,23.50
2023-01-06T19:30:35.382Z,23.83
2023-01-06T19:33:22.982Z,22.95
2023-01-06T19:35:52.286Z,22.75
2023-01-06T19:38:26.546Z,22.95
2023-01-06T19:40:56.665Z,23.00
2023-01-06T19:43:29.308Z,23.63
2023-01-06T19:45:59.543Z,24.73
2023-01-06T19:48:33.260Z,22.13
2023-01-06T19:51:11.170Z,21.27
2023-01-06T19:53:43.965Z,21.98
2023-01-06T19:56:22.024Z,23.02
2023-01-06T19:58:53.611Z,22.45
2023-01-06T20:01:24.228Z,22.52
2023-01-06T20:03:54.820Z,21.67
2023-01-06T20:06:24.203Z,20.67
2023-01-06T20:08:53.932Z,22.15
2023-01-06T20:11:24.824Z,23.05
2023-01-06T20:13:53.298Z,20.88
2023-01-06T20:16:23.226Z,23.13
2023-01-06T20:18:51.860Z,21.15
2023-01-06T20:21:20.217Z,20.75
2023-01-06T20:23:48.536Z,20.48
2023-01-06T20:26:16.807Z,20.83
2023-01-06T20:28:45.219Z,21.25
2023-01-06T20:31:13.548Z,20.42
2023-01-06T20:33:43.339Z,19.15
2023-01-06T20:36:11.624Z,18.75
2023-01-06T20:38:39.916Z,17.27
2023-01-06T20:41:08.213Z,18.15
2023-01-06T20:43:36.646Z,18.10
2023-01-06T20:46:05.528Z,17.48
2023-01-06T20:48:33.930Z,19.15
2023-01-06T20:51:03.660Z,18.77
2023-01-06T20:53:31.931Z,18.00
2023-01-06T20:56:00.400Z,18.23
2023-01-06T20:58:28.714Z,17.73
2023-01-06T21:00:57.138Z,17.33
2023-01-06T21:03:25.667Z,18.63
2023-01-06T21:05:54.405Z,17.98
2023-01-06T21:08:24.284Z,16.42
2023-01-06T21:10:52.621Z,18.83
2023-01-06T21:13:24.112Z,16.77
2023-01-06T21:15:52.783Z,19.45
2023-01-06T21:18:21.104Z,19.17
2023-01-06T21:20:49.888Z,19.67
2023-01-06T21:23:18.352Z,18.83
2023-01-06T21:25:48.697Z,19.52
2023-01-06T21:28:17.130Z,18.67
2023-01-06T21:30:45.646Z,18.25
2023-01-06T21:33:14.647Z,19.38
2023-01-06T21:35:43.082Z,19.48
2023-01-06T21:38:11.459Z,19.85
2023-01-06T21:40:39.748Z,19.33
2023-01-06T21:43:08.759Z,17.55
2023-01-06T21:45:37.585Z,17.70
2023-01-06T21:48:07.142Z,18.33
2023-01-06T21:50:39.130Z,19.45
2023-01-06T21:53:09.330Z,17.48
2023-01-06T21:55:38.290Z,18.58
2023-01-06T21:58:08.350Z,17.20
2023-01-06T22:00:36.963Z,18.27
2023-01-06T22:03:05.753Z,17.75
2023-01-06T22:05:35.057Z,19.23
2023-01-06T22:08:04.047Z,21.52
2023-01-06T22:10:32.742Z,18.50
2023-01-06T22:13:02.062Z,19.17
2023-01-06T22:15:32.103Z,18.48
2023-01-06T22:18:02.308Z,19.50
2023-01-06T22:20:32.685Z,19.10
2023-01-06T22:23:03.427Z,18.58
2023-01-06T22:25:32.288Z,21.38
2023-01-06T22:28:00.752Z,20.70
2023-01-06T22:30:31.827Z,19.38
2023-01-06T22:33:00.258Z,20.15
2023-01-06T22:35:29.008Z,19.20
2023-01-06T22:37:59.482Z,19.48
2023-01-06T22:40:29.725Z,19.98
2023-01-06T22:42:58.603Z,19.80
2023-01-06T22:45:27.434Z,20.40
2023-01-06T22:48:13.419Z,20.35
2023-01-06T22:50:42.240Z,20.45
2023-01-06T22:53:10.957Z,20.35
2023-01-06T22:55:39.633Z,20.40
2023-01-06T22:58:09.255Z,22.38
2023-01-06T23:00:38.029Z,23.15
2023-01-06T23:03:06.924Z,20.52
2023-01-06T23:05:37.229Z,19.98
2023-01-06T23:08:06.399Z,21.25
2023-01-06T23:10:35.723Z,21.33
2023-01-06T23:13:04.420Z,21.85
2023-01-06T23:15:33.395Z,22.80
2023-01-06T23:18:02.455Z,19.30
2023-01-06T23:20:31.107Z,21.90
2023-01-06T23:23:01.276Z,21.90
2023-01-06T23:25:30.127Z,21.35
2023-01-06T23:28:04.642Z,21.98
2023-01-06T23:30:33.489Z,22.42
2023-01-06T23:33:02.080Z,22.10
2023-01-06T23:35:30.875Z,22.10
2023-01-06T23:38:03.441Z,23.20
2023-01-06T23:40:32.449Z,22.70
2023-01-06T23:43:01.632Z,26.45
2023-01-06T23:45:30.774Z,22.92
2023-01-06T23:48:00.392Z,22.48
2023-01-06T23:50:29.136Z,24.88
2023-01-06T23:52:57.526Z,23.85
2023-01-06T23:55:27.217Z,21.80
2023-01-06T23:57:55.596Z,25.45
